createdAt,value
2018-01-24T00:00:29.440Z,100360.33
2018-01-24T00:03:31.029Z,100373.45
2018-01-24T00:06:32.519Z,100366.00
2018-01-24T00:09:34.005Z,100363.81
2018-01-24T00:12:35.478Z,100367.91
2018-01-24T00:15:37.710Z,100360.31
2018-01-24T00:18:39.161Z,100366.33
2018-01-24T00:21:40.646Z,100372.39
2018-01-24T00:24:42.170Z,100359.00
2018-01-24T00:27:43.645Z,100345.08
2018-01-24T00:30:45.128Z,100340.34
2018-01-24T00:33:47.351Z,100340.70
2018-01-24T00:36:48.851Z,100346.59
2018-01-24T00:39:51.045Z,100332.48
2018-01-24T00:42:52.548Z,100337.50
2018-01-24T00:45:54.004Z,100340.61
2018-01-24T00:48:55.533Z,100335.58
2018-01-24T00:51:57.010Z,100316.83
2018-01-24T00:54:58.431Z,100317.02
2018-01-24T00:57:59.974Z,100312.73
2018-01-24T01:01:01.463Z,100316.28
2018-01-24T01:04:02.989Z,100314.11
2018-01-24T01:07:04.476Z,100312.98
2018-01-24T01:10:05.949Z,100318.50
2018-01-24T01:13:08.150Z,100329.13
2018-01-24T01:16:09.702Z,100309.36
2018-01-24T01:19:11.153Z,100313.27
2018-01-24T01:22:12.631Z,100317.30
2018-01-24T01:25:14.148Z,100308.89
2018-01-24T01:28:15.571Z,100317.72
2018-01-24T01:31:17.792Z,100308.72
2018-01-24T01:34:19.304Z,100325.11
2018-01-24T01:37:20.710Z,100316.77
2018-01-24T01:40:22.176Z,100319.33
2018-01-24T01:43:23.700Z,100330.09
2018-01-24T01:46:25.209Z,100333.72
2018-01-24T01:49:26.627Z,100338.26
2018-01-24T01:52:28.139Z,100321.41
2018-01-24T01:55:30.373Z,100333.64
2018-01-24T01:58:31.885Z,100321.94
2018-01-24T02:01:33.381Z,100316.75
2018-01-24T02:04:34.895Z,100319.83
2018-01-24T02:07:36.421Z,100320.81
2018-01-24T02:10:38.621Z,100323.38
2018-01-24T02:13:40.138Z,100322.87
2018-01-24T02:16:41.649Z,100331.02
2018-01-24T02:19:43.073Z,100321.07
2018-01-24T02:22:44.561Z,100325.20
2018-01-24T02:25:46.054Z,100328.34
2018-01-24T02:28:48.233Z,100320.16
2018-01-24T02:31:49.737Z,100321.08
2018-01-24T02:34:51.205Z,100321.42
2018-01-24T02:37:52.760Z,100307.45
2018-01-24T02:40:54.243Z,100319.06
2018-01-24T02:43:55.729Z,100317.44
2018-01-24T02:46:57.981Z,100310.47
2018-01-24T02:49:59.479Z,100290.36
2018-01-24T02:53:00.980Z,100303.32
2018-01-24T02:56:02.450Z,100315.09
2018-01-24T02:59:03.857Z,100315.66
2018-01-24T03:02:05.417Z,100307.70
2018-01-24T03:05:06.902Z,100304.17
2018-01-24T03:08:08.412Z,100304.00
2018-01-24T03:11:09.928Z,100311.09
2018-01-24T03:14:11.398Z,100313.03
2018-01-24T03:17:12.926Z,100306.06
2018-01-24T03:20:14.390Z,100305.20
2018-01-24T03:23:15.896Z,100309.47
2018-01-24T03:26:17.426Z,100314.20
2018-01-24T03:29:18.898Z,100313.94
2018-01-24T03:32:20.358Z,100308.69
2018-01-24T03:35:22.531Z,100305.88
2018-01-24T03:38:24.771Z,100299.05
2018-01-24T03:41:26.266Z,100306.88
2018-01-24T03:44:27.767Z,100303.30
2018-01-24T03:47:29.264Z,100300.01
2018-01-24T03:50:31.503Z,100287.32
2018-01-24T03:53:33.010Z,100292.02
2018-01-24T03:56:34.496Z,100297.80
2018-01-24T03:59:35.965Z,100290.58
2018-01-24T04:02:37.442Z,100291.46
2018-01-24T04:05:38.905Z,100291.13
2018-01-24T04:08:41.111Z,100300.05
2018-01-24T04:11:42.557Z,100295.39
2018-01-24T04:14:44.036Z,100290.88
2018-01-24T04:17:45.632Z,100297.36
2018-01-24T04:20:47.078Z,100279.44
2018-01-24T04:23:48.593Z,100283.95
2018-01-24T04:26:50.069Z,100289.73
2018-01-24T04:29:51.510Z,100287.22
2018-01-24T04:32:52.967Z,100283.31
2018-01-24T04:35:54.426Z,100277.63
2018-01-24T04:38:55.919Z,100273.47
2018-01-24T04:41:57.372Z,100260.59
2018-01-24T04:44:59.562Z,100264.78
2018-01-24T04:48:01.015Z,100248.05
2018-01-24T04:51:02.522Z,100264.37
2018-01-24T04:54:04.031Z,100263.87
2018-01-24T04:57:05.521Z,100258.22
2018-01-24T05:00:06.975Z,100268.72
2018-01-24T05:03:08.454Z,100271.12
2018-01-24T05:06:10.690Z,100268.11
2018-01-24T05:09:12.212Z,100251.30
2018-01-24T05:12:13.767Z,100255.77
2018-01-24T05:15:15.368Z,100264.36
2018-01-24T05:18:17.609Z,100249.38
2018-01-24T05:21:19.935Z,100247.80
2018-01-24T05:24:22.152Z,100267.11
2018-01-24T05:27:23.673Z,100245.13
2018-01-24T05:30:25.172Z,100269.99
2018-01-24T05:33:26.635Z,100265.85
2018-01-24T05:36:28.145Z,100247.91
2018-01-24T05:39:29.610Z,100255.22
2018-01-24T05:42:31.087Z,100261.20
2018-01-24T05:45:32.580Z,100254.66
2018-01-24T05:48:34.815Z,100248.87
2018-01-24T05:51:36.353Z,100237.17
2018-01-24T05:54:37.838Z,100238.75
2018-01-24T05:57:39.368Z,100230.24
2018-01-24T06:00:41.144Z,100236.83
2018-01-24T06:03:42.632Z,100242.34
2018-01-24T06:06:44.384Z,100236.36
2018-01-24T06:09:46.833Z,100251.95
2018-01-24T06:12:48.434Z,100242.88
2018-01-24T06:15:49.897Z,100247.94
2018-01-24T06:18:51.414Z,100242.10
2018-01-24T06:21:53.645Z,100252.11
2018-01-24T06:24:55.134Z,100244.61
2018-01-24T06:27:56.636Z,100249.58
2018-01-24T06:30:58.442Z,100230.14
2018-01-24T06:34:01.050Z,100237.67
2018-01-24T06:37:02.518Z,100236.62
2018-01-24T06:40:04.286Z,100225.28
2018-01-24T06:43:05.773Z,100226.58
2018-01-24T06:46:07.264Z,100217.73
2018-01-24T06:49:09.640Z,100217.34
2018-01-24T06:52:11.986Z,100206.52
2018-01-24T06:55:13.560Z,100197.19
2018-01-24T06:58:15.750Z,100199.20
2018-01-24T07:01:17.464Z,100199.94
2018-01-24T07:04:19.118Z,100208.62
2018-01-24T07:07:20.590Z,100205.85
2018-01-24T07:10:22.712Z,100208.95
2018-01-24T07:13:42.709Z,100201.11
2018-01-24T07:16:44.098Z,100218.20
2018-01-24T07:19:45.492Z,100216.44
2018-01-24T07:22:46.891Z,100219.04
2018-01-24T07:25:48.298Z,100220.28
2018-01-24T07:28:49.682Z,100223.51
2018-01-24T07:31:51.077Z,100213.48
2018-01-24T07:34:52.403Z,100225.47
2018-01-24T07:37:53.881Z,100226.08
2018-01-24T07:40:55.279Z,100210.59
2018-01-24T07:43:56.633Z,100223.78
2018-01-24T07:46:58.023Z,100219.34
2018-01-24T07:50:00.294Z,100226.27
2018-01-24T07:53:02.465Z,100213.39
2018-01-24T07:56:04.594Z,100221.62
2018-01-24T07:59:05.995Z,100207.00
2018-01-24T08:02:07.307Z,100202.73
2018-01-24T08:05:08.717Z,100205.29
2018-01-24T08:08:10.099Z,100201.70
2018-01-24T08:11:11.420Z,100206.39
2018-01-24T08:14:12.765Z,100203.14
2018-01-24T08:17:14.135Z,100208.78
2018-01-24T08:20:15.551Z,100205.84
2018-01-24T08:23:16.944Z,100209.97
2018-01-24T08:26:18.406Z,100207.78
2018-01-24T08:29:19.857Z,100209.35
2018-01-24T08:32:21.380Z,100214.98
2018-01-24T08:35:22.854Z,100208.56
2018-01-24T08:38:24.540Z,100213.83
2018-01-24T08:41:26.075Z,100216.72
2018-01-24T08:44:27.604Z,100218.55
2018-01-24T08:47:29.081Z,100211.24
2018-01-24T08:50:30.534Z,100204.33
2018-01-24T08:53:32.039Z,100204.13
2018-01-24T08:56:33.506Z,100193.83
2018-01-24T08:59:35.919Z,100187.98
2018-01-24T09:02:37.394Z,100182.45
2018-01-24T09:05:38.829Z,100178.84
2018-01-24T09:08:40.265Z,100189.53
2018-01-24T09:11:41.664Z,100180.97
2018-01-24T09:14:43.086Z,100176.45
2018-01-24T09:17:44.531Z,100185.96
2018-01-24T09:20:46.715Z,100166.48
2018-01-24T09:23:48.171Z,100172.98
2018-01-24T09:26:49.854Z,100160.47
2018-01-24T09:29:51.606Z,100157.30
2018-01-24T09:32:53.337Z,100160.53
2018-01-24T09:35:54.810Z,100154.53
2018-01-24T09:38:56.367Z,100157.16
2018-01-24T09:41:57.809Z,100149.91
2018-01-24T09:44:59.255Z,100148.02
2018-01-24T09:48:00.887Z,100150.55
2018-01-24T09:51:02.380Z,100144.10
2018-01-24T09:54:03.901Z,100137.91
2018-01-24T09:57:05.443Z,100149.00
2018-01-24T10:00:06.976Z,100143.39
2018-01-24T10:03:09.165Z,100134.91
2018-01-24T10:06:10.795Z,100127.38
2018-01-24T10:09:13.209Z,100114.27
2018-01-24T10:12:14.835Z,100120.95
2018-01-24T10:15:16.245Z,100092.23
2018-01-24T10:18:18.429Z,100106.47
2018-01-24T10:21:19.843Z,100099.49
2018-01-24T10:24:21.279Z,100087.84
2018-01-24T10:27:22.756Z,100077.37
2018-01-24T10:30:24.182Z,100078.55
2018-01-24T10:33:25.620Z,100087.67
2018-01-24T10:36:27.866Z,100064.45
2018-01-24T10:39:29.328Z,100069.14
2018-01-24T10:42:31.564Z,100065.88
2018-01-24T10:45:33.066Z,100071.16
2018-01-24T10:48:34.484Z,100070.09
2018-01-24T10:51:35.971Z,100060.12
2018-01-24T10:54:38.185Z,100049.51
2018-01-24T10:57:39.601Z,100054.97
2018-01-24T11:00:41.844Z,100043.55
2018-01-24T11:03:43.335Z,100053.01
2018-01-24T11:06:44.694Z,100029.78
2018-01-24T11:09:46.150Z,100028.66
2018-01-24T11:12:47.804Z,100030.11
2018-01-24T11:15:49.267Z,100030.87
2018-01-24T11:18:50.703Z,100006.55
2018-01-24T11:21:52.147Z,100017.57
2018-01-24T11:24:54.364Z,100020.43
2018-01-24T11:27:55.798Z,99993.53
2018-01-24T11:30:57.224Z,100006.55
2018-01-24T11:33:58.822Z,100000.79
2018-01-24T11:37:00.474Z,99972.28
2018-01-24T11:40:01.974Z,99961.63
2018-01-24T11:43:03.330Z,99969.69
2018-01-24T11:46:05.587Z,99963.84
2018-01-24T11:49:07.180Z,99967.06
2018-01-24T11:52:08.591Z,99953.84
2018-01-24T11:55:10.052Z,99950.44
2018-01-24T11:58:11.738Z,99945.55
2018-01-24T12:01:13.152Z,99941.80
2018-01-24T12:04:14.591Z,99917.00
2018-01-24T12:07:16.005Z,99910.09
2018-01-24T12:10:17.513Z,99924.69
2018-01-24T12:13:18.868Z,99902.68
2018-01-24T12:16:20.377Z,99913.14
2018-01-24T12:19:21.795Z,99894.28
2018-01-24T12:22:24.038Z,99893.11
2018-01-24T12:25:25.430Z,99879.18
2018-01-24T12:28:26.908Z,99885.17
2018-01-24T12:31:28.365Z,99886.30
2018-01-24T12:34:29.826Z,99874.15
2018-01-24T12:37:31.255Z,99870.89
2018-01-24T12:40:32.650Z,99869.65
2018-01-24T12:43:34.097Z,99871.35
2018-01-24T12:46:35.649Z,99865.05
2018-01-24T12:49:37.070Z,99857.72
2018-01-24T12:52:38.577Z,99861.14
2018-01-24T12:55:40.103Z,99862.39
2018-01-24T12:58:41.488Z,99863.09
2018-01-24T13:01:43.713Z,99838.39
2018-01-24T13:04:45.103Z,99836.59
2018-01-24T13:07:47.267Z,99818.54
2018-01-24T13:10:48.739Z,99825.64
2018-01-24T13:13:50.934Z,99822.30
2018-01-24T13:16:52.338Z,99768.83
2018-01-24T13:19:53.744Z,99794.05
2018-01-24T13:22:55.122Z,99802.52
2018-01-24T13:25:56.467Z,99804.77
2018-01-24T13:28:57.870Z,99784.94
2018-01-24T13:32:00.037Z,99788.66
2018-01-24T13:35:02.152Z,99781.69
2018-01-24T13:38:10.458Z,99777.84
2018-01-24T13:41:11.835Z,99790.06
2018-01-24T13:44:13.221Z,99779.73
2018-01-24T13:47:15.373Z,99779.44
2018-01-24T13:50:16.766Z,99794.94
2018-01-24T13:53:18.188Z,99774.54
2018-01-24T13:56:20.320Z,99778.69
2018-01-24T13:59:21.638Z,99759.18
2018-01-24T14:02:23.034Z,99763.26
2018-01-24T14:05:24.391Z,99756.81
2018-01-24T14:08:25.762Z,99741.30
2018-01-24T14:11:27.897Z,99747.67
2018-01-24T14:14:29.266Z,99742.86
2018-01-24T14:17:30.655Z,99738.09
2018-01-24T14:20:32.029Z,99732.48
2018-01-24T14:23:33.476Z,99719.20
2018-01-24T14:26:34.854Z,99723.39
2018-01-24T14:29:36.240Z,99725.86
2018-01-24T14:32:38.336Z,99734.50
2018-01-24T14:35:39.761Z,99734.60
2018-01-24T14:38:41.915Z,99725.16
2018-01-24T14:41:43.381Z,99713.56
2018-01-24T14:44:45.591Z,99732.24
2018-01-24T14:47:46.954Z,99720.36
2018-01-24T14:50:48.348Z,99716.47
2018-01-24T14:53:50.539Z,99716.09
2018-01-24T14:56:51.898Z,99725.53
2018-01-24T14:59:53.275Z,99718.70
2018-01-24T15:02:54.614Z,99717.45
2018-01-24T15:05:56.026Z,99743.91
2018-01-24T15:08:58.200Z,99724.05
2018-01-24T15:12:00.300Z,99717.61
2018-01-24T15:15:01.688Z,99742.02
2018-01-24T15:18:03.087Z,99759.26
2018-01-24T15:21:04.520Z,99753.53
2018-01-24T15:24:05.832Z,99769.30
2018-01-24T15:27:07.216Z,99755.56
2018-01-24T15:30:09.333Z,99761.89
2018-01-24T15:33:10.684Z,99762.47
2018-01-24T15:36:12.220Z,99747.98
2018-01-24T15:39:13.700Z,99748.20
2018-01-24T15:42:15.141Z,99736.14
2018-01-24T15:45:16.516Z,99734.20
2018-01-24T15:48:17.989Z,99742.36
2018-01-24T15:51:19.371Z,99738.14
2018-01-24T15:54:27.736Z,99733.81
2018-01-24T15:57:29.088Z,99743.80
2018-01-24T16:00:30.527Z,99736.92
2018-01-24T16:03:31.983Z,99725.93
2018-01-24T16:06:33.445Z,99712.73
2018-01-24T16:09:34.903Z,99711.61
2018-01-24T16:12:36.361Z,99702.22
2018-01-24T16:15:37.846Z,99706.86
2018-01-24T16:18:40.044Z,99709.20
2018-01-24T16:21:41.460Z,99699.00
2018-01-24T16:24:42.898Z,99699.83
2018-01-24T16:27:44.333Z,99684.06
2018-01-24T16:30:45.728Z,99700.81
2018-01-24T16:33:47.150Z,99689.53
2018-01-24T16:36:48.660Z,99707.44
2018-01-24T16:39:50.107Z,99704.94
2018-01-24T16:42:51.507Z,99710.38
2018-01-24T16:45:52.927Z,99701.90
2018-01-24T16:48:54.353Z,99694.76
2018-01-24T16:51:55.834Z,99685.70
2018-01-24T16:54:58.137Z,99684.11
2018-01-24T16:57:59.556Z,99692.41
2018-01-24T17:01:00.950Z,99689.34
2018-01-24T17:04:02.428Z,99699.30
2018-01-24T17:07:04.592Z,99691.55
2018-01-24T17:10:06.170Z,99698.20
2018-01-24T17:13:08.320Z,99686.45
2018-01-24T17:16:09.818Z,99679.61
2018-01-24T17:19:11.255Z,99683.39
2018-01-24T17:22:12.731Z,99693.44
2018-01-24T17:25:14.145Z,99693.12
2018-01-24T17:28:16.248Z,99691.12
2018-01-24T17:31:17.600Z,99681.70
2018-01-24T17:34:18.976Z,99677.04
2018-01-24T17:37:20.348Z,99687.39
2018-01-24T17:40:21.748Z,99678.47
2018-01-24T17:43:23.067Z,99672.89
2018-01-24T17:46:25.485Z,99669.36
2018-01-24T17:49:27.004Z,99689.70
2018-01-24T17:52:28.956Z,99661.36
2018-01-24T17:55:30.368Z,99646.32
2018-01-24T18:01:40.074Z,99641.06
2018-01-24T18:04:42.266Z,99637.27
2018-01-24T18:07:43.734Z,99644.97
2018-01-24T18:10:45.177Z,99634.46
2018-01-24T18:13:46.664Z,99640.05
2018-01-24T18:16:48.127Z,99629.60
2018-01-24T18:19:49.573Z,99625.17
2018-01-24T18:22:51.085Z,99623.42
2018-01-24T18:25:52.548Z,99626.63
2018-01-24T18:28:54.078Z,99627.00
2018-01-24T18:31:56.315Z,99634.66
2018-01-24T18:34:57.828Z,99625.06
2018-01-24T18:37:59.323Z,99619.28
2018-01-24T18:41:00.811Z,99631.01
2018-01-24T18:47:10.607Z,99625.38
2018-01-24T18:50:12.114Z,99630.45
2018-01-24T18:53:14.146Z,99621.98
2018-01-24T18:56:16.240Z,99622.86
2018-01-24T18:59:18.132Z,99611.63
2018-01-24T19:02:20.676Z,99606.06
2018-01-24T19:05:22.485Z,99580.13
2018-01-24T19:08:25.382Z,99585.11
2018-01-24T19:11:28.230Z,99565.05
2018-01-24T19:14:30.842Z,99563.46
2018-01-24T19:17:32.438Z,99582.86
2018-01-24T19:20:35.087Z,99560.88
2018-01-24T19:23:37.976Z,99575.80
2018-01-24T19:26:40.394Z,99609.63
2018-01-24T19:29:41.874Z,99593.16
2018-01-24T19:32:43.628Z,99597.48
2018-01-24T19:35:45.131Z,99557.70
2018-01-24T19:38:46.836Z,99563.90
2018-01-24T19:41:48.802Z,99583.57
2018-01-24T19:44:51.185Z,99585.02
2018-01-24T19:47:55.496Z,99579.61
2018-01-24T19:50:56.968Z,99569.99
2018-01-24T19:53:58.894Z,99586.55
2018-01-24T19:57:00.948Z,99573.31
2018-01-24T20:00:02.600Z,99579.88
2018-01-24T20:03:04.020Z,99575.23
2018-01-24T20:06:06.395Z,99581.30
2018-01-24T20:09:08.047Z,99573.03
2018-01-24T20:12:10.682Z,99578.90
2018-01-24T20:15:12.111Z,99569.27
2018-01-24T20:18:14.564Z,99565.48
2018-01-24T20:21:17.254Z,99585.14
2018-01-24T20:24:20.026Z,99554.09
2018-01-24T20:27:23.962Z,99586.30
2018-01-24T20:30:28.699Z,99573.43
2018-01-24T20:33:30.134Z,99561.93
2018-01-24T20:36:32.804Z,99569.07
2018-01-24T20:39:35.206Z,99567.12
2018-01-24T20:42:38.610Z,99536.33
2018-01-24T20:45:41.615Z,99537.05
2018-01-24T20:48:44.136Z,99535.37
2018-01-24T20:51:46.869Z,99557.06
2018-01-24T20:54:48.498Z,99540.77
2018-01-24T20:57:50.584Z,99521.25
2018-01-24T21:00:53.183Z,99533.15
2018-01-24T21:03:54.762Z,99523.98
2018-01-24T21:06:57.074Z,99541.97
2018-01-24T21:09:58.754Z,99543.77
2018-01-24T21:13:02.078Z,99516.94
2018-01-24T21:16:03.598Z,99502.00
2018-01-24T21:19:06.687Z,99517.00
2018-01-24T21:22:08.646Z,99520.49
2018-01-24T21:25:10.506Z,99539.80
2018-01-24T21:28:15.586Z,99518.75
2018-01-24T21:31:38.614Z,99524.81
2018-01-24T21:34:58.955Z,99512.72
2018-01-24T21:38:01.152Z,99541.94
2018-01-24T21:41:02.633Z,99531.58
2018-01-24T21:44:04.073Z,99535.72
2018-01-24T21:47:05.568Z,99529.70
2018-01-24T21:50:06.983Z,99517.47
2018-01-24T21:53:08.396Z,99525.08
2018-01-24T21:56:09.864Z,99534.50
2018-01-24T21:59:12.011Z,99529.61
2018-01-24T22:02:13.541Z,99531.61
2018-01-24T22:05:15.013Z,99524.35
2018-01-24T22:08:16.492Z,99537.59
2018-01-24T22:11:18.004Z,99532.53
2018-01-24T22:14:19.561Z,99525.50
2018-01-24T22:17:21.001Z,99522.61
2018-01-24T22:20:22.572Z,99530.93
2018-01-24T22:23:24.193Z,99516.91
2018-01-24T22:26:25.679Z,99512.66
2018-01-24T22:29:27.187Z,99522.53
2018-01-24T22:32:28.670Z,99534.16
2018-01-24T22:35:30.160Z,99527.66
2018-01-24T22:38:31.592Z,99526.86
2018-01-24T22:41:33.137Z,99536.98
2018-01-24T22:44:34.872Z,99524.97
2018-01-24T22:47:36.356Z,99533.88
2018-01-24T22:50:37.915Z,99530.88
2018-01-24T22:53:39.430Z,99538.64
2018-01-24T22:56:41.113Z,99547.39
2018-01-24T22:59:42.573Z,99551.08
2018-01-24T23:02:44.104Z,99556.95
2018-01-24T23:05:45.591Z,99548.66
2018-01-24T23:08:47.094Z,99546.27
2018-01-24T23:11:48.765Z,99529.36
2018-01-24T23:14:50.228Z,99547.44
2018-01-24T23:17:51.740Z,99546.41
2018-01-24T23:20:53.956Z,99539.22
2018-01-24T23:23:55.497Z,99543.37
2018-01-24T23:26:57.001Z,99551.95
2018-01-24T23:29:59.361Z,99551.53
2018-01-24T23:33:00.916Z,99545.85
2018-01-24T23:36:03.153Z,99557.20
2018-01-24T23:39:04.699Z,99531.70
2018-01-24T23:42:06.190Z,99541.70
2018-01-24T23:45:07.881Z,99540.87
2018-01-24T23:48:10.110Z,99539.88
2018-01-24T23:51:11.643Z,99531.95
2018-01-24T23:54:13.197Z,99542.88
2018-01-24T23:57:14.716Z,99535.41
